Time;durP1;ratioP1;P1;durP2;ratioP2;P2;SDS_P1;SDS_P2;PMS_P1;PMS_P2;Temp;Humidity;BMP_temperature;BMP_pressure;BME280_temperature;BME280_humidity;BME280_pressure;Samples;Min_cycle;Max_cycle;Signal;HPM_P1;HPM_P2
2022/01/17 00:01:18;;;;;;;23.53;14.17;;;3.60;99.90;;;;;;2713559;39;20485;31
2022/01/17 00:03:57;;;;;;;28.83;19.77;;;3.60;99.90;;;;;;2603685;54;20812;31
2022/01/17 00:06:31;;;;;;;31.00;21.48;;;3.60;99.90;;;;;;2603592;54;20623;31
2022/01/17 00:09:06;;;;;;;31.53;19.70;;;3.60;99.90;;;;;;2603596;54;20049;31
2022/01/17 00:11:44;;;;;;;32.70;21.10;;;3.70;99.90;;;;;;2701994;39;20689;31
2022/01/17 00:14:22;;;;;;;29.30;19.58;;;3.60;99.90;;;;;;2622231;46;20034;31
2022/01/17 00:17:10;;;;;;;28.50;19.77;;;3.60;99.90;;;;;;2610254;46;20874;31
2022/01/17 00:19:54;;;;;;;26.20;16.20;;;3.60;99.90;;;;;;2603592;54;20030;31
2022/01/17 00:22:28;;;;;;;28.95;19.60;;;3.60;99.90;;;;;;2603620;54;20878;31
2022/01/17 00:25:03;;;;;;;28.08;18.08;;;3.60;99.90;;;;;;2603625;54;20750;31
2022/01/17 00:27:39;;;;;;;30.58;20.23;;;3.60;99.90;;;;;;2603685;54;21332;31
2022/01/17 00:30:15;;;;;;;29.00;18.90;;;3.70;99.90;;;;;;2622284;46;20034;31
2022/01/17 00:35:25;;;;;;;21.63;15.48;;;3.70;99.90;;;;;;2603785;54;20053;31
2022/01/17 00:40:30;;;;;;;25.40;17.53;;;3.70;99.90;;;;;;2603699;54;19931;31
2022/01/17 00:43:05;;;;;;;24.20;16.42;;;3.80;99.90;;;;;;2621794;46;20779;31
2022/01/17 00:45:42;;;;;;;25.90;17.00;;;3.80;99.90;;;;;;2603513;54;20026;31
2022/01/17 00:50:59;;;;;;;26.73;16.15;;;3.80;99.90;;;;;;2603181;54;20052;31
2022/01/17 00:53:40;;;;;;;22.50;15.53;;;3.90;99.90;;;;;;2603566;54;20027;31
2022/01/17 00:56:19;;;;;;;23.23;15.57;;;3.90;99.90;;;;;;2603440;54;20243;31
2022/01/17 00:58:55;;;;;;;23.07;14.77;;;3.90;99.90;;;;;;2603488;54;20757;31
2022/01/17 01:01:30;;;;;;;26.50;16.50;;;3.90;99.90;;;;;;2621791;46;20827;31
2022/01/17 01:06:36;;;;;;;24.40;15.38;;;3.90;99.90;;;;;;2603338;54;20132;31
2022/01/17 01:09:13;;;;;;;27.88;15.40;;;3.90;99.90;;;;;;2621846;46;20042;31
2022/01/17 01:11:50;;;;;;;23.03;15.50;;;3.90;99.90;;;;;;2603501;54;20037;31
2022/01/17 01:14:24;;;;;;;22.80;14.53;;;4.00;99.90;;;;;;2603276;54;20917;31
2022/01/17 01:17:07;;;;;;;20.53;14.23;;;4.00;99.90;;;;;;2603456;54;20243;31
2022/01/17 01:19:43;;;;;;;22.42;14.90;;;4.00;99.90;;;;;;2701892;39;20480;31
2022/01/17 01:27:58;;;;;;;20.70;13.82;;;4.00;99.90;;;;;;2603394;54;20030;31
2022/01/17 01:33:08;;;;;;;20.70;14.57;;;4.00;99.90;;;;;;2603432;54;20760;31
2022/01/17 01:35:48;;;;;;;23.40;15.20;;;4.00;99.90;;;;;;2603621;54;20030;31
2022/01/17 01:40:58;;;;;;;21.98;14.60;;;3.90;99.90;;;;;;2621929;46;20022;31
2022/01/17 01:43:33;;;;;;;20.50;13.88;;;3.90;99.90;;;;;;2603234;54;20836;31
2022/01/17 01:46:14;;;;;;;20.92;13.95;;;3.90;99.90;;;;;;2603129;54;20094;31
2022/01/17 01:48:47;;;;;;;21.95;14.07;;;4.00;99.90;;;;;;2603493;54;21400;31
2022/01/17 01:51:24;;;;;;;18.27;12.70;;;4.00;99.90;;;;;;2603467;54;20026;31
2022/01/17 01:53:59;;;;;;;23.00;14.60;;;4.00;99.90;;;;;;2621861;46;20022;31
2022/01/17 01:56:41;;;;;;;19.65;13.73;;;3.90;99.90;;;;;;2602920;54;20026;31
2022/01/17 01:59:16;;;;;;;20.20;13.18;;;4.00;99.90;;;;;;2621831;46;20041;31
2022/01/17 02:01:50;;;;;;;22.30;13.20;;;4.00;99.90;;;;;;2603288;54;20843;31
2022/01/17 02:04:25;;;;;;;19.70;12.73;;;4.00;99.90;;;;;;2603273;54;20100;31
2022/01/17 02:07:00;;;;;;;20.77;12.82;;;3.90;99.90;;;;;;2701617;39;20505;31
2022/01/17 02:09:35;;;;;;;20.95;13.80;;;4.10;99.90;;;;;;2701646;39;20492;31
2022/01/17 02:12:20;;;;;;;19.45;13.77;;;4.00;99.90;;;;;;2621647;46;20032;31
2022/01/17 02:14:58;;;;;;;18.42;13.07;;;4.00;99.90;;;;;;2603296;54;20880;31
2022/01/17 02:17:40;;;;;;;;;;;4.00;99.90;;;;;;2603352;54;20038;31
2022/01/17 02:20:23;;;;;;;21.40;13.77;;;4.00;99.90;;;;;;2603470;54;19943;31
2022/01/17 02:23:04;;;;;;;17.60;11.65;;;4.00;99.90;;;;;;2603324;54;20030;31
2022/01/17 02:25:38;;;;;;;20.80;14.27;;;4.00;99.90;;;;;;2621329;46;20815;31
2022/01/17 02:28:13;;;;;;;17.85;13.20;;;4.00;99.90;;;;;;2603189;54;20858;31
2022/01/17 02:30:49;;;;;;;19.90;14.40;;;3.90;99.90;;;;;;2603205;54;20847;31
2022/01/17 02:33:24;;;;;;;19.95;13.75;;;3.90;99.90;;;;;;2603133;54;20803;31
2022/01/17 02:35:56;;;;;;;21.27;14.77;;;3.90;99.90;;;;;;2621335;46;20934;31
2022/01/17 02:38:34;;;;;;;21.03;15.20;;;3.90;99.90;;;;;;2603325;54;20037;31
2022/01/17 02:41:09;;;;;;;22.83;15.20;;;4.00;99.90;;;;;;2603165;54;20270;31
2022/01/17 02:43:50;;;;;;;22.45;15.77;;;4.00;99.90;;;;;;2701669;39;20601;31
2022/01/17 02:46:27;;;;;;;22.05;14.20;;;4.00;99.90;;;;;;2603287;54;20031;31
2022/01/17 02:49:02;;;;;;;19.50;14.75;;;4.10;99.90;;;;;;2603133;54;20838;31
2022/01/17 02:51:38;;;;;;;21.05;15.30;;;4.00;99.90;;;;;;2621321;47;20026;31
2022/01/17 02:56:47;;;;;;;23.87;15.93;;;4.00;99.90;;;;;;2621245;47;20103;31
2022/01/17 02:59:24;;;;;;;21.50;15.60;;;4.00;99.90;;;;;;2603269;54;21055;31
2022/01/17 03:02:00;;;;;;;21.50;15.93;;;4.00;99.90;;;;;;2621698;47;20029;31
2022/01/17 03:04:36;;;;;;;24.67;16.17;;;4.10;99.90;;;;;;2603100;54;20561;31
2022/01/17 03:07:11;;;;;;;;;;;4.20;99.90;;;;;;2602853;54;20281;31
2022/01/17 03:10:01;;;;;;;22.27;15.18;;;4.10;99.90;;;;;;2603848;54;20722;31
2022/01/17 03:12:39;;;;;;;22.87;15.53;;;4.10;99.90;;;;;;2604013;54;20868;31
2022/01/17 03:15:14;;;;;;;23.63;16.73;;;4.20;99.90;;;;;;2603851;54;20251;31
2022/01/17 03:20:19;;;;;;;26.50;16.95;;;4.10;99.90;;;;;;2604035;54;20060;31
2022/01/17 03:22:57;;;;;;;25.85;17.70;;;4.10;99.90;;;;;;2603850;54;20027;31
2022/01/17 03:25:34;;;;;;;26.20;18.57;;;4.10;99.90;;;;;;2603912;54;20907;31
2022/01/17 03:30:42;;;;;;;26.45;17.50;;;4.10;99.90;;;;;;2603961;54;20026;31
2022/01/17 03:33:17;;;;;;;25.37;17.13;;;4.10;99.90;;;;;;2603782;54;20026;31
2022/01/17 03:35:52;;;;;;;28.87;18.67;;;4.10;99.90;;;;;;2622040;46;20115;31
2022/01/17 03:38:29;;;;;;;26.90;16.67;;;4.10;99.90;;;;;;2603911;54;20851;31
2022/01/17 03:41:02;;;;;;;27.15;17.70;;;4.10;99.90;;;;;;2702273;39;20481;31
2022/01/17 03:43:39;;;;;;;24.58;16.60;;;4.10;99.90;;;;;;2603685;54;20030;31
2022/01/17 03:46:19;;;;;;;25.08;16.52;;;4.10;99.90;;;;;;2603656;54;20573;31
2022/01/17 03:48:53;;;;;;;23.00;15.53;;;4.10;99.90;;;;;;2603523;54;20902;31
2022/01/17 03:54:05;;;;;;;24.95;16.80;;;4.10;99.90;;;;;;2603599;54;20026;31
2022/01/17 03:56:40;;;;;;;24.50;17.20;;;4.10;99.90;;;;;;2603650;54;20037;31
2022/01/17 03:59:16;;;;;;;24.05;15.30;;;4.20;99.90;;;;;;2622218;46;20030;31
2022/01/17 04:01:56;;;;;;;;;;;4.10;99.90;;;;;;2603675;54;20034;31
2022/01/17 04:04:35;;;;;;;23.42;15.55;;;4.20;99.90;;;;;;2622258;46;20687;31
2022/01/17 04:07:10;;;;;;;23.00;16.10;;;4.20;99.90;;;;;;2603763;54;20030;31
2022/01/17 04:09:49;;;;;;;25.65;15.93;;;4.20;99.90;;;;;;2603716;54;20037;31
2022/01/17 04:12:23;;;;;;;24.63;15.25;;;4.10;99.90;;;;;;2621852;46;20557;31
2022/01/17 04:15:03;;;;;;;20.38;12.80;;;4.20;99.90;;;;;;2621915;46;20877;31
2022/01/17 04:17:41;;;;;;;21.77;14.13;;;4.20;99.90;;;;;;2622175;46;20026;31
2022/01/17 04:20:26;;;;;;;18.53;14.17;;;4.30;99.90;;;;;;2603860;54;21849;31
2022/01/17 04:23:02;;;;;;;19.00;12.52;;;4.30;99.90;;;;;;2603729;54;20869;31
2022/01/17 04:28:09;;;;;;;22.60;13.85;;;4.30;99.90;;;;;;2701945;39;20569;31
2022/01/17 04:30:44;;;;;;;17.83;11.87;;;4.30;99.90;;;;;;2622005;46;20026;31
2022/01/17 04:33:19;;;;;;;20.75;11.50;;;4.30;99.90;;;;;;2603711;54;20027;31
2022/01/17 04:35:56;;;;;;;18.73;11.90;;;4.30;99.90;;;;;;2701902;39;20520;31
2022/01/17 04:38:32;;;;;;;17.15;11.20;;;4.50;99.90;;;;;;2603383;54;20923;31
2022/01/17 04:41:14;;;;;;;16.45;9.85;;;4.40;99.90;;;;;;2603568;54;20085;31
2022/01/17 04:46:35;;;;;;;;;;;4.40;99.90;;;;;;2603442;54;20276;31
2022/01/17 04:49:13;;;;;;;14.55;7.55;;;4.40;99.90;;;;;;2603537;54;20500;31
2022/01/17 04:51:54;;;;;;;12.82;9.27;;;4.40;99.90;;;;;;2602736;54;20904;31
2022/01/17 04:54:40;;;;;;;16.65;9.57;;;4.40;99.90;;;;;;2603412;54;20888;31
2022/01/17 04:57:15;;;;;;;13.77;8.50;;;4.40;99.90;;;;;;2603617;54;20836;31
2022/01/17 04:59:50;;;;;;;15.90;9.65;;;4.40;99.90;;;;;;2603408;54;20042;31
2022/01/17 05:02:25;;;;;;;12.80;8.85;;;4.40;99.90;;;;;;2603505;54;20842;31
2022/01/17 05:05:02;;;;;;;19.40;9.80;;;4.50;99.90;;;;;;2603484;54;20992;31
2022/01/17 05:07:41;;;;;;;14.13;10.20;;;4.50;99.90;;;;;;2622013;46;20248;31
2022/01/17 05:10:17;;;;;;;13.55;9.52;;;4.50;99.90;;;;;;2603128;54;20597;31
2022/01/17 05:12:54;;;;;;;14.83;8.87;;;4.50;99.90;;;;;;2603248;54;20868;31
2022/01/17 05:15:33;;;;;;;15.93;8.17;;;4.50;99.90;;;;;;2603493;54;20253;31
2022/01/17 05:19:47;;;;;;;14.00;8.35;;;4.50;99.90;;;;;;2603362;54;20273;31
2022/01/17 05:21:15;;;;;;;15.45;8.82;;;4.60;99.90;;;;;;2603552;54;20030;31
2022/01/17 05:23:52;;;;;;;14.23;8.50;;;4.60;99.90;;;;;;2603452;54;20052;31
2022/01/17 05:26:26;;;;;;;15.00;10.23;;;4.60;99.90;;;;;;2603451;54;20977;31
2022/01/17 05:29:02;;;;;;;16.50;8.45;;;4.60;99.90;;;;;;2603235;54;20034;31
2022/01/17 05:31:43;;;;;;;14.83;9.20;;;4.60;99.90;;;;;;2603529;54;20875;31
2022/01/17 05:34:21;;;;;;;14.98;9.63;;;4.60;99.90;;;;;;2603545;54;20136;31
2022/01/17 05:36:58;;;;;;;16.58;10.18;;;4.50;99.90;;;;;;2603080;54;20821;31
2022/01/17 05:39:32;;;;;;;14.73;9.00;;;4.50;99.90;;;;;;2603440;54;20813;31
2022/01/17 05:42:14;;;;;;;14.18;8.75;;;4.50;99.90;;;;;;2603539;54;20877;31
2022/01/17 05:44:51;;;;;;;16.45;10.25;;;4.40;99.90;;;;;;2603203;54;20887;31
2022/01/17 05:47:23;;;;;;;21.07;12.00;;;4.40;99.90;;;;;;2603061;54;20027;31
2022/01/17 05:50:01;;;;;;;17.13;10.88;;;4.40;99.90;;;;;;2622085;46;20340;31
2022/01/17 05:52:36;;;;;;;18.13;10.63;;;4.30;99.90;;;;;;2621613;46;20901;31
2022/01/17 05:55:12;;;;;;;21.73;11.90;;;4.30;99.90;;;;;;2603423;54;20234;31
2022/01/17 05:57:50;;;;;;;16.60;9.67;;;4.20;99.90;;;;;;2603306;54;20833;31
2022/01/17 06:00:26;;;;;;;18.77;11.63;;;4.20;99.90;;;;;;2621815;46;20031;31
2022/01/17 06:03:01;;;;;;;18.95;12.27;;;4.20;99.90;;;;;;2603119;54;20165;31
2022/01/17 06:05:37;;;;;;;19.10;11.53;;;4.20;99.90;;;;;;2603215;54;20896;31
2022/01/17 06:08:35;;;;;;;23.60;11.70;;;4.10;99.90;;;;;;2621687;46;20267;31
2022/01/17 06:11:09;;;;;;;19.75;11.70;;;4.10;99.90;;;;;;2614931;46;20076;31
2022/01/17 06:13:47;;;;;;;20.67;11.93;;;4.10;99.90;;;;;;2720025;39;20482;31
2022/01/17 06:16:21;;;;;;;17.05;10.60;;;4.10;99.90;;;;;;2603219;54;20026;31
2022/01/17 06:18:55;;;;;;;17.55;9.85;;;4.10;99.90;;;;;;2622104;46;20883;31
2022/01/17 06:21:30;;;;;;;17.92;9.27;;;4.10;99.90;;;;;;2602592;54;20852;31
2022/01/17 06:24:09;;;;;;;21.90;12.15;;;4.10;99.90;;;;;;2603307;54;20879;31
2022/01/17 06:26:46;;;;;;;17.25;9.98;;;4.10;99.90;;;;;;2603475;54;20867;31
2022/01/17 06:29:23;;;;;;;16.42;10.30;;;4.10;99.90;;;;;;2701578;39;20385;31
2022/01/17 06:31:58;;;;;;;16.17;9.77;;;4.10;99.90;;;;;;2603360;54;20896;31
2022/01/17 06:34:53;;;;;;;15.32;9.15;;;4.10;99.90;;;;;;2603173;54;21104;31
2022/01/17 06:37:29;;;;;;;12.13;7.73;;;4.10;99.90;;;;;;2603134;54;20844;31
2022/01/17 06:40:04;;;;;;;12.70;7.88;;;4.10;99.90;;;;;;2602977;54;20239;31
2022/01/17 06:42:40;;;;;;;11.70;7.43;;;4.20;99.90;;;;;;2621546;46;20903;31
2022/01/17 06:45:18;;;;;;;13.05;8.45;;;4.20;99.90;;;;;;2603087;54;20246;31
2022/01/17 06:47:54;;;;;;;13.77;7.05;;;4.20;99.90;;;;;;2602970;54;20031;31
2022/01/17 06:50:29;;;;;;;13.43;7.65;;;4.30;99.90;;;;;;2602859;54;20030;31
2022/01/17 06:53:04;;;;;;;15.25;7.70;;;4.30;99.90;;;;;;2603301;54;20802;31
2022/01/17 06:55:38;;;;;;;19.95;7.57;;;4.30;99.90;;;;;;2603189;54;20027;31
2022/01/17 06:58:13;;;;;;;15.38;8.10;;;4.30;99.90;;;;;;2602928;54;20850;31
2022/01/17 07:00:50;;;;;;;15.98;7.25;;;4.30;99.90;;;;;;2603062;54;20030;31
2022/01/17 07:03:26;;;;;;;11.55;7.00;;;4.40;99.90;;;;;;2603064;54;20579;31
2022/01/17 07:06:01;;;;;;;13.13;7.15;;;4.40;99.90;;;;;;2603185;54;20890;31
2022/01/17 07:08:36;;;;;;;12.15;7.38;;;4.50;99.90;;;;;;2621340;47;20565;31
2022/01/17 07:11:13;;;;;;;11.57;6.53;;;4.40;99.90;;;;;;2621742;47;20030;31
2022/01/17 07:13:48;;;;;;;9.90;5.40;;;4.50;99.90;;;;;;2603150;54;20766;31
2022/01/17 07:16:29;;;;;;;10.73;5.97;;;4.50;99.90;;;;;;2603109;54;20919;31
2022/01/17 07:19:08;;;;;;;12.30;4.60;;;4.50;99.90;;;;;;2621081;47;20869;31
2022/01/17 07:21:43;;;;;;;8.45;4.20;;;4.50;99.90;;;;;;2620971;47;20089;31
2022/01/17 07:24:39;;;;;;;10.05;5.10;;;4.60;99.90;;;;;;2603030;54;20542;31
2022/01/17 07:27:17;;;;;;;7.77;4.50;;;4.70;99.90;;;;;;2603000;54;20909;31
2022/01/17 07:29:53;;;;;;;10.88;5.38;;;4.70;99.90;;;;;;2602882;54;20257;31
2022/01/17 07:32:39;;;;;;;7.93;5.07;;;4.60;99.90;;;;;;2602811;54;20583;31
2022/01/17 07:35:17;;;;;;;9.80;5.50;;;4.70;99.90;;;;;;2602703;54;20031;31
2022/01/17 07:37:51;;;;;;;10.93;5.68;;;4.70;99.90;;;;;;2602682;54;20291;31
2022/01/17 07:40:25;;;;;;;10.38;4.75;;;4.70;99.90;;;;;;2621243;47;20581;31
2022/01/17 07:43:00;;;;;;;8.03;4.97;;;4.70;99.90;;;;;;2602849;54;20037;31
2022/01/17 07:45:44;;;;;;;7.85;5.20;;;4.60;99.90;;;;;;2602776;54;20201;31
2022/01/17 07:48:58;;;;;;;12.15;4.45;;;4.70;99.90;;;;;;2602518;54;20069;31
2022/01/17 07:51:35;;;;;;;5.80;3.60;;;4.60;99.90;;;;;;2602682;54;20030;31
2022/01/17 07:54:10;;;;;;;8.07;4.68;;;4.60;99.90;;;;;;2603539;54;20027;31
2022/01/17 07:56:48;;;;;;;8.10;3.40;;;4.50;99.90;;;;;;2603883;54;19935;31
2022/01/17 07:59:26;;;;;;;7.45;3.10;;;4.50;99.90;;;;;;2603813;54;20875;31
2022/01/17 08:02:01;;;;;;;10.23;3.80;;;4.50;99.90;;;;;;2603781;54;20582;31
2022/01/17 08:04:39;;;;;;;6.53;3.42;;;4.50;99.90;;;;;;2603680;54;20038;31
2022/01/17 08:07:15;;;;;;;4.82;2.65;;;4.50;99.90;;;;;;2602907;54;20034;31
2022/01/17 08:09:53;;;;;;;6.30;3.13;;;4.40;99.90;;;;;;2602889;54;20900;31
2022/01/17 08:12:30;;;;;;;8.40;2.27;;;4.40;99.90;;;;;;2602811;54;21226;31
2022/01/17 08:15:05;;;;;;;6.75;1.85;;;4.30;99.90;;;;;;2603637;54;20085;31
2022/01/17 08:17:42;;;;;;;6.38;2.58;;;4.30;99.90;;;;;;2621981;46;20887;31
2022/01/17 08:20:25;;;;;;;6.35;2.80;;;4.40;99.90;;;;;;2603534;54;20848;31
2022/01/17 08:23:02;;;;;;;3.67;2.35;;;4.30;99.90;;;;;;2603457;54;20153;31
2022/01/17 08:25:37;;;;;;;6.47;3.17;;;4.40;99.90;;;;;;2622161;46;20031;31
2022/01/17 08:28:14;;;;;;;7.47;3.10;;;4.30;99.90;;;;;;2603522;54;20023;31
2022/01/17 08:30:48;;;;;;;10.75;2.95;;;4.30;99.90;;;;;;2720559;39;22495;31
2022/01/17 08:33:48;;;;;;;7.57;3.10;;;4.30;99.90;;;;;;2701993;39;20359;31
2022/01/17 08:36:26;;;;;;;10.20;3.22;;;4.30;99.90;;;;;;2603645;54;21348;31
2022/01/17 08:39:01;;;;;;;6.03;3.50;;;4.30;99.90;;;;;;2603336;54;20057;31
2022/01/17 08:41:36;;;;;;;6.78;3.40;;;4.20;99.90;;;;;;2603662;54;20030;31
2022/01/17 08:44:12;;;;;;;;;;;4.30;99.90;;;;;;2702462;39;20572;31
2022/01/17 08:46:48;;;;;;;8.13;2.65;;;4.30;99.90;;;;;;2603004;54;19943;31
2022/01/17 08:49:28;;;;;;;5.68;2.90;;;4.30;99.90;;;;;;2603440;54;20896;31
2022/01/17 08:52:06;;;;;;;5.00;2.50;;;4.30;99.90;;;;;;2603448;54;20760;31
2022/01/17 08:54:43;;;;;;;6.45;2.45;;;4.30;99.90;;;;;;2603402;54;20030;31
2022/01/17 08:57:21;;;;;;;10.05;3.30;;;4.30;99.90;;;;;;2792357;31;21156;31
2022/01/17 08:59:56;;;;;;;10.60;4.10;;;4.30;99.90;;;;;;2603360;54;20090;31
2022/01/17 09:02:32;;;;;;;4.68;2.55;;;4.30;99.90;;;;;;2603292;54;20744;31
2022/01/17 09:05:09;;;;;;;6.93;3.27;;;4.30;99.90;;;;;;2603171;54;20033;31
2022/01/17 09:07:49;;;;;;;7.45;2.80;;;4.30;99.90;;;;;;2701772;39;20749;31
2022/01/17 09:10:25;;;;;;;8.82;5.60;;;4.30;99.90;;;;;;2603227;54;20875;31
2022/01/17 09:13:10;;;;;;;8.52;5.72;;;4.40;99.90;;;;;;2603520;54;20668;31
2022/01/17 09:15:45;;;;;;;8.60;2.35;;;4.40;99.90;;;;;;2701944;39;21442;31
2022/01/17 09:18:20;;;;;;;8.25;1.70;;;4.40;99.90;;;;;;2603247;54;20026;31
2022/01/17 09:20:56;;;;;;;4.07;2.10;;;4.40;99.90;;;;;;2603515;54;20884;31
2022/01/17 09:23:36;;;;;;;6.40;2.10;;;4.40;99.90;;;;;;2621556;46;20918;31
2022/01/17 09:26:13;;;;;;;5.32;2.10;;;4.40;99.90;;;;;;2603266;54;20928;31
2022/01/17 09:28:48;;;;;;;11.00;1.60;;;4.40;99.90;;;;;;2603426;54;20037;31
2022/01/17 09:34:13;;;;;;;5.22;1.95;;;4.50;99.90;;;;;;2603271;54;20246;31
2022/01/17 09:36:50;;;;;;;5.57;1.90;;;4.60;99.90;;;;;;2621537;46;20900;31
2022/01/17 09:39:33;;;;;;;2.85;1.40;;;4.60;99.90;;;;;;2621834;46;20031;31
2022/01/17 09:42:09;;;;;;;3.45;1.55;;;4.60;99.90;;;;;;2603181;54;20105;31
2022/01/17 09:44:46;;;;;;;4.43;1.50;;;4.70;99.90;;;;;;2603425;54;20878;31
2022/01/17 09:47:24;;;;;;;5.20;2.03;;;4.70;99.90;;;;;;2603274;54;20856;31
2022/01/17 09:50:06;;;;;;;;;;;4.70;99.90;;;;;;2603469;54;20027;31
2022/01/17 09:52:43;;;;;;;5.95;1.63;;;4.80;99.90;;;;;;2621842;46;19935;31
2022/01/17 09:55:22;;;;;;;3.87;1.40;;;4.80;99.90;;;;;;2621580;46;20078;31
2022/01/17 09:57:57;;;;;;;4.03;1.57;;;4.80;99.90;;;;;;2603480;54;20873;31
2022/01/17 10:00:35;;;;;;;2.70;1.10;;;4.90;99.90;;;;;;2701597;39;20697;31
2022/01/17 10:03:12;;;;;;;4.75;1.40;;;4.90;99.90;;;;;;2603107;54;20030;31
2022/01/17 10:05:50;;;;;;;2.08;1.13;;;5.00;99.90;;;;;;2603136;54;20077;31
2022/01/17 10:08:26;;;;;;;6.05;1.40;;;5.00;99.90;;;;;;2603012;54;20034;31
2022/01/17 10:11:15;;;;;;;3.92;0.93;;;5.10;99.90;;;;;;2603279;54;20053;31
2022/01/17 10:16:21;;;;;;;3.30;1.23;;;5.20;99.90;;;;;;2602897;54;20077;31
2022/01/17 10:18:59;;;;;;;2.70;1.00;;;5.20;99.90;;;;;;2621468;46;20034;31
2022/01/17 10:21:41;;;;;;;7.50;1.58;;;5.20;99.90;;;;;;2603314;54;20034;31
2022/01/17 10:24:22;;;;;;;3.95;1.25;;;5.20;99.90;;;;;;2621630;46;20225;31
2022/01/17 10:35:38;;;;;;;2.67;1.20;;;5.30;99.90;;;;;;2620970;46;20026;31
2022/01/17 10:38:15;;;;;;;6.10;1.60;;;5.30;99.90;;;;;;2621570;46;20808;31
2022/01/17 10:40:55;;;;;;;5.72;1.80;;;5.20;99.90;;;;;;2602401;54;20924;31
2022/01/17 10:43:35;;;;;;;3.03;1.60;;;5.20;99.90;;;;;;2602338;54;20745;31
2022/01/17 10:46:11;;;;;;;6.80;1.77;;;5.30;99.90;;;;;;2603304;54;20754;31
2022/01/17 10:48:47;;;;;;;2.83;1.67;;;5.30;99.90;;;;;;2603331;54;20030;31
2022/01/17 10:51:33;;;;;;;4.70;1.42;;;5.20;99.90;;;;;;2620961;46;20027;31
2022/01/17 10:54:14;;;;;;;4.78;1.60;;;5.20;99.90;;;;;;2603144;54;20048;31
2022/01/17 10:56:52;;;;;;;3.35;1.58;;;5.20;99.90;;;;;;2621568;47;20037;31
2022/01/17 10:59:36;;;;;;;4.07;1.48;;;5.20;99.90;;;;;;2603012;54;20027;31
2022/01/17 11:02:12;;;;;;;3.10;1.42;;;5.20;99.90;;;;;;2603064;54;20859;31
2022/01/17 11:04:47;;;;;;;1.45;1.05;;;5.20;99.90;;;;;;2621488;47;20589;31
2022/01/17 11:07:24;;;;;;;3.50;1.20;;;5.20;99.90;;;;;;2603154;54;20854;31
2022/01/17 11:10:07;;;;;;;2.05;0.25;;;5.20;99.90;;;;;;2602923;54;20026;31
2022/01/17 11:12:43;;;;;;;1.73;0.57;;;4.40;99.90;;;;;;2621254;47;20034;31
2022/01/17 11:15:27;;;;;;;1.70;0.40;;;3.70;99.90;;;;;;2603130;54;20893;31
2022/01/17 11:18:05;;;;;;;2.42;0.70;;;3.10;99.90;;;;;;2621607;47;20038;31
2022/01/17 11:20:42;;;;;;;2.25;0.70;;;2.70;99.90;;;;;;2621601;47;20033;31
2022/01/17 11:23:18;;;;;;;2.35;0.90;;;2.50;99.90;;;;;;2603142;54;20049;31
2022/01/17 11:25:56;;;;;;;2.10;1.00;;;2.30;99.90;;;;;;2602951;54;20022;31
2022/01/17 11:28:34;;;;;;;1.70;0.40;;;2.10;99.90;;;;;;2603620;54;20066;31
2022/01/17 11:31:16;;;;;;;3.92;1.00;;;2.10;99.90;;;;;;2603770;54;20308;31
2022/01/17 11:33:52;;;;;;;4.05;0.70;;;2.10;99.90;;;;;;2603636;54;20093;31
2022/01/17 11:36:28;;;;;;;2.13;0.88;;;2.00;99.90;;;;;;2603831;54;20736;31
2022/01/17 11:39:02;;;;;;;2.73;1.00;;;2.10;99.90;;;;;;2603768;54;20022;31
2022/01/17 11:41:39;;;;;;;3.58;0.55;;;2.10;99.90;;;;;;2603817;54;20038;31
2022/01/17 11:44:13;;;;;;;;;;;2.00;99.90;;;;;;2604085;54;20026;31
2022/01/17 11:47:11;;;;;;;1.20;0.70;;;2.00;99.90;;;;;;2603769;54;20766;31
2022/01/17 11:49:47;;;;;;;4.17;1.33;;;2.00;99.90;;;;;;2603945;54;20300;31
2022/01/17 11:52:31;;;;;;;2.40;1.05;;;2.00;99.90;;;;;;2603606;54;20112;31
2022/01/17 11:55:08;;;;;;;4.10;1.08;;;2.10;99.90;;;;;;2603522;54;20120;31
2022/01/17 11:57:43;;;;;;;2.97;1.45;;;2.10;99.90;;;;;;2603165;54;20034;31
2022/01/17 12:00:32;;;;;;;4.10;0.77;;;2.10;99.90;;;;;;2622119;46;20042;31
2022/01/17 12:03:29;;;;;;;3.33;1.55;;;2.20;99.90;;;;;;2603758;54;20027;31
2022/01/17 12:06:25;;;;;;;7.15;2.10;;;2.30;99.90;;;;;;2603850;54;20868;31
2022/01/17 12:08:57;;;;;;;15.95;6.60;;;2.30;99.90;;;;;;2603328;54;20113;31
2022/01/17 12:11:34;;;;;;;21.58;10.18;;;2.30;99.90;;;;;;2603843;54;20142;31
2022/01/17 12:14:23;;;;;;;25.85;9.32;;;2.30;99.90;;;;;;2621972;46;20030;31
2022/01/17 12:17:13;;;;;;;9.02;3.78;;;2.40;99.90;;;;;;2603788;54;20026;31
2022/01/17 12:20:24;;;;;;;8.38;1.80;;;2.40;99.90;;;;;;2622310;46;20031;31
2022/01/17 12:23:01;;;;;;;4.28;1.17;;;2.50;99.90;;;;;;2603551;54;20030;31
2022/01/17 12:28:26;;;;;;;2.93;0.93;;;2.70;99.90;;;;;;2621746;46;20077;31
2022/01/17 12:31:03;;;;;;;4.95;1.08;;;2.70;99.90;;;;;;2603429;54;20977;31
2022/01/17 12:33:44;;;;;;;2.35;0.70;;;2.80;99.90;;;;;;2603454;54;20050;31
2022/01/17 12:36:33;;;;;;;3.97;0.88;;;2.80;99.90;;;;;;2602808;54;20774;31
2022/01/17 12:39:31;;;;;;;4.10;0.90;;;2.90;99.90;;;;;;2603336;54;20033;31
2022/01/17 12:42:05;;;;;;;6.40;1.67;;;3.00;99.90;;;;;;2603549;54;20023;31
2022/01/17 12:44:43;;;;;;;4.15;1.10;;;3.00;99.90;;;;;;2603580;54;20033;31
2022/01/17 12:47:20;;;;;;;5.45;0.98;;;3.00;99.90;;;;;;2603468;54;20026;31
2022/01/17 12:50:12;;;;;;;4.60;1.05;;;3.10;99.90;;;;;;2603582;54;20882;31
2022/01/17 12:52:54;;;;;;;4.30;1.15;;;3.00;99.90;;;;;;2603500;54;20027;31
2022/01/17 12:55:31;;;;;;;4.68;1.27;;;3.10;99.90;;;;;;2603497;54;20085;31
2022/01/17 13:01:16;;;;;;;4.68;0.98;;;3.00;99.90;;;;;;2603539;54;20027;31
2022/01/17 13:03:51;;;;;;;4.97;1.10;;;3.00;99.90;;;;;;2603532;54;20897;31
2022/01/17 13:06:31;;;;;;;4.25;1.33;;;3.00;99.90;;;;;;2603309;54;20060;31
2022/01/17 13:09:20;;;;;;;6.40;1.67;;;3.00;99.90;;;;;;2603294;54;20031;31
2022/01/17 13:14:27;;;;;;;8.15;2.20;;;2.80;99.90;;;;;;2603119;54;20037;31
2022/01/17 13:17:02;;;;;;;6.22;2.47;;;2.80;99.90;;;;;;2602694;54;20056;31
2022/01/17 13:19:40;;;;;;;6.93;2.10;;;2.70;99.90;;;;;;2603095;54;20026;31
2022/01/17 13:22:15;;;;;;;6.03;2.10;;;2.60;99.90;;;;;;2621810;46;20608;31
2022/01/17 13:25:03;;;;;;;7.15;1.65;;;2.60;99.90;;;;;;2621758;46;20887;31
2022/01/17 13:27:44;;;;;;;7.05;1.63;;;2.50;99.90;;;;;;2603366;54;20095;31
2022/01/17 13:30:23;;;;;;;4.05;1.30;;;2.50;99.90;;;;;;2603448;54;20034;31
2022/01/17 13:33:20;;;;;;;6.68;2.10;;;2.50;99.90;;;;;;2603302;54;20927;31
2022/01/17 13:36:02;;;;;;;5.85;1.25;;;2.40;99.90;;;;;;2701756;39;20512;31
2022/01/17 13:38:38;;;;;;;8.95;1.58;;;2.50;99.90;;;;;;2603403;54;20034;31
2022/01/17 13:41:16;;;;;;;6.03;1.63;;;2.40;99.90;;;;;;2603447;54;20668;31
2022/01/17 13:43:56;;;;;;;4.65;1.40;;;2.40;99.90;;;;;;2603095;54;20025;31
2022/01/17 13:46:30;;;;;;;7.47;2.20;;;2.40;99.90;;;;;;2603301;54;20050;31
2022/01/17 13:49:06;;;;;;;7.37;2.00;;;2.30;99.90;;;;;;2621780;46;20100;31
2022/01/17 13:51:41;;;;;;;7.70;2.30;;;2.40;99.90;;;;;;2603464;54;20246;31
2022/01/17 13:54:28;;;;;;;4.15;1.20;;;2.40;99.90;;;;;;2603311;54;21254;31
2022/01/17 13:57:14;;;;;;;8.90;1.70;;;2.30;99.90;;;;;;2621787;46;20034;31
2022/01/17 14:00:14;;;;;;;9.73;2.05;;;2.30;99.90;;;;;;2603309;54;20917;31
2022/01/17 14:02:50;;;;;;;5.25;1.30;;;2.30;99.90;;;;;;2603278;54;20030;31
2022/01/17 14:05:32;;;;;;;4.32;1.33;;;2.30;99.90;;;;;;2603297;54;20605;31
2022/01/17 14:08:18;;;;;;;6.35;1.50;;;2.30;99.90;;;;;;2621928;46;20144;31
2022/01/17 14:10:57;;;;;;;10.02;1.83;;;2.30;99.90;;;;;;2603139;54;20026;31
2022/01/17 14:13:38;;;;;;;3.47;0.82;;;2.20;99.90;;;;;;2603388;54;20022;31
2022/01/17 14:16:21;;;;;;;6.35;1.55;;;2.20;99.90;;;;;;2603346;54;20037;31
2022/01/17 14:18:57;;;;;;;5.40;1.17;;;2.20;99.90;;;;;;2603387;54;20054;31
2022/01/17 14:21:52;;;;;;;3.92;1.17;;;2.20;99.90;;;;;;2603028;54;20851;31
2022/01/17 14:24:28;;;;;;;6.70;1.02;;;2.20;99.90;;;;;;2773009;31;20585;31
2022/01/17 14:27:11;;;;;;;4.68;1.20;;;2.20;99.90;;;;;;2603391;54;20034;31
2022/01/17 14:29:53;;;;;;;3.75;1.15;;;2.10;99.90;;;;;;2603376;54;19934;31
2022/01/17 14:32:30;;;;;;;4.35;1.10;;;2.10;99.90;;;;;;2603382;54;20027;31
2022/01/17 14:35:11;;;;;;;4.67;1.33;;;2.10;99.90;;;;;;2621537;46;20038;31
2022/01/17 14:37:50;;;;;;;5.55;1.40;;;2.00;99.90;;;;;;2603184;54;20037;31
2022/01/17 14:40:28;;;;;;;6.40;1.30;;;2.10;99.90;;;;;;2603295;54;20053;31
2022/01/17 14:43:13;;;;;;;4.25;1.55;;;2.00;99.90;;;;;;2603253;54;20032;31
2022/01/17 14:45:52;;;;;;;6.53;1.98;;;2.00;99.90;;;;;;2602849;54;20909;31
2022/01/17 14:48:35;;;;;;;7.57;1.95;;;2.00;99.90;;;;;;2602907;54;20667;31
2022/01/17 14:51:21;;;;;;;5.45;1.30;;;1.90;99.90;;;;;;2621171;46;20152;31
2022/01/17 14:53:58;;;;;;;5.93;1.55;;;1.90;99.90;;;;;;2621020;46;20886;31
2022/01/17 14:59:56;;;;;;;7.90;1.38;;;1.90;99.90;;;;;;2602997;54;19994;31
2022/01/17 15:02:38;;;;;;;4.57;1.35;;;1.80;99.90;;;;;;2621500;47;20085;31